Time;durP1;ratioP1;P1;durP2;ratioP2;P2;SDS_P1;SDS_P2;PMS_P1;PMS_P2;Temp;Humidity;BMP_temperature;BMP_pressure;BME280_temperature;BME280_humidity;BME280_pressure;Samples;Min_cycle;Max_cycle;Signal;HPM_P1;HPM_P2
2022/05/23 00:01:47;;;;;;;5.97;3.10;;;14.80;99.90;;;;;;5018363;28;20493;-44
2022/05/23 00:04:16;;;;;;;2.80;2.27;;;14.80;99.90;;;;;;5017948;28;20477;-46
2022/05/23 00:06:43;;;;;;;3.73;3.10;;;14.70;99.90;;;;;;5017896;28;20454;-47
2022/05/23 00:09:10;;;;;;;5.20;2.93;;;14.60;99.90;;;;;;5010192;28;20478;-49
2022/05/23 00:11:38;;;;;;;6.00;2.60;;;14.60;99.90;;;;;;5017608;28;20458;-40
2022/05/23 00:14:05;;;;;;;5.03;2.57;;;14.50;99.90;;;;;;5017561;28;20477;-49
2022/05/23 00:16:35;;;;;;;3.80;2.43;;;14.50;99.90;;;;;;5016958;28;20442;-43
2022/05/23 00:19:02;;;;;;;6.20;2.97;;;14.40;99.90;;;;;;5016434;28;20513;-47
2022/05/23 00:21:30;;;;;;;3.60;2.93;;;14.40;99.90;;;;;;5016651;28;20462;-45
2022/05/23 00:23:56;;;;;;;2.73;2.30;;;14.40;99.90;;;;;;5017110;28;20501;-43
2022/05/23 00:26:23;;;;;;;8.23;2.80;;;14.40;99.90;;;;;;5016922;28;20977;-43
2022/05/23 00:28:51;;;;;;;3.60;2.53;;;14.40;99.90;;;;;;5016296;28;20438;-50
2022/05/23 00:31:21;;;;;;;3.40;2.30;;;14.40;99.90;;;;;;5017845;28;20472;-43
2022/05/23 00:36:36;;;;;;;4.87;2.87;;;14.40;99.90;;;;;;5017501;28;20448;-47
2022/05/23 00:39:04;;;;;;;8.57;2.50;;;14.40;99.90;;;;;;5016800;28;20463;-39
2022/05/23 00:44:20;;;;;;;3.67;2.97;;;14.40;99.90;;;;;;5017125;28;20413;-37
2022/05/23 00:46:58;;;;;;;2.53;2.33;;;14.40;99.90;;;;;;5016868;28;20517;-45
2022/05/23 00:49:28;;;;;;;4.03;2.53;;;14.40;99.90;;;;;;5017554;28;20473;-48
2022/05/23 00:51:58;;;;;;;3.47;2.73;;;14.40;99.90;;;;;;5016349;28;20438;-48
2022/05/23 00:54:29;;;;;;;4.63;3.33;;;14.40;99.90;;;;;;5016758;28;20863;-44
2022/05/23 00:56:56;;;;;;;6.13;3.00;;;14.40;99.90;;;;;;5015983;28;20422;-50
2022/05/23 00:59:28;;;;;;;3.40;2.97;;;14.40;99.90;;;;;;5010208;28;20450;-43
2022/05/23 01:01:55;;;;;;;4.20;3.33;;;14.40;99.90;;;;;;5016413;28;20477;-46
2022/05/23 01:04:22;;;;;;;3.83;3.10;;;14.30;99.90;;;;;;5013233;28;20470;-50
2022/05/23 01:06:49;;;;;;;4.33;3.17;;;14.30;99.90;;;;;;5012615;28;20561;-49
2022/05/23 01:09:20;;;;;;;5.73;3.70;;;14.30;99.90;;;;;;5009163;28;20450;-39
2022/05/23 01:11:50;;;;;;;7.30;4.50;;;14.30;99.90;;;;;;5015980;28;20469;-39
2022/05/23 01:14:16;;;;;;;4.00;3.70;;;14.30;99.90;;;;;;5015967;28;21006;-54
2022/05/23 01:16:43;;;;;;;4.80;3.80;;;14.30;99.90;;;;;;5016732;28;20445;-50
2022/05/23 01:19:10;;;;;;;7.50;3.10;;;14.30;99.90;;;;;;5015058;28;20473;-48
2022/05/23 01:21:49;;;;;;;4.73;3.27;;;14.30;99.90;;;;;;5015845;28;20449;-47
2022/05/23 01:24:23;;;;;;;5.63;3.10;;;14.20;99.90;;;;;;5016100;28;21085;-43
2022/05/23 01:26:57;;;;;;;6.60;2.97;;;14.20;99.90;;;;;;5016003;28;20421;-43
2022/05/23 01:29:24;;;;;;;4.70;3.80;;;14.20;99.90;;;;;;5016224;28;20446;-41
2022/05/23 01:31:55;;;;;;;4.80;2.37;;;14.20;99.90;;;;;;5015259;28;20497;-50
2022/05/23 01:34:22;;;;;;;4.77;3.03;;;14.20;99.90;;;;;;5015005;28;20482;-49
2022/05/23 01:36:48;;;;;;;12.07;4.00;;;14.20;99.90;;;;;;5015216;28;20488;-48
2022/05/23 01:39:15;;;;;;;4.13;3.13;;;14.10;99.90;;;;;;5013490;28;20411;-50
2022/05/23 01:41:42;;;;;;;3.07;2.53;;;14.00;99.90;;;;;;5008215;28;20482;-53
2022/05/23 01:44:10;;;;;;;5.43;2.83;;;14.00;99.90;;;;;;5014866;28;20454;-53
2022/05/23 01:46:38;;;;;;;4.83;2.97;;;14.00;99.90;;;;;;5015115;28;20438;-49
2022/05/23 01:49:09;;;;;;;4.30;3.63;;;14.00;99.90;;;;;;5014327;28;20454;-47
2022/05/23 01:51:37;;;;;;;6.83;3.80;;;13.90;99.90;;;;;;5015060;28;20438;-47
2022/05/23 01:54:04;;;;;;;7.13;3.73;;;13.90;99.90;;;;;;5014959;28;20486;-50
2022/05/23 01:56:31;;;;;;;4.00;3.40;;;13.90;99.90;;;;;;5015268;28;20563;-47
2022/05/23 02:01:43;;;;;;;5.10;4.13;;;13.90;99.90;;;;;;5015295;28;20448;-44
2022/05/23 02:04:10;;;;;;;6.93;3.50;;;13.90;99.90;;;;;;5014918;28;20434;-49
2022/05/23 02:06:37;;;;;;;5.20;3.30;;;13.80;99.90;;;;;;5015161;28;20477;-46
2022/05/23 02:09:04;;;;;;;5.60;3.30;;;13.80;99.90;;;;;;5009824;28;20449;-47
2022/05/23 02:11:31;;;;;;;7.30;3.07;;;13.80;99.90;;;;;;5015524;28;20461;-40
2022/05/23 02:13:58;;;;;;;6.37;3.27;;;13.70;99.90;;;;;;5014205;28;20492;-45
2022/05/23 02:16:25;;;;;;;4.43;4.00;;;13.60;99.90;;;;;;5014923;28;20450;-49
2022/05/23 02:18:53;;;;;;;5.83;3.30;;;13.60;99.90;;;;;;5013584;28;20438;-46
2022/05/23 02:21:20;;;;;;;3.50;3.00;;;13.60;99.90;;;;;;5013953;28;20500;-48
2022/05/23 02:23:47;;;;;;;4.93;3.73;;;13.60;99.90;;;;;;5014472;28;20446;-43
2022/05/23 02:26:17;;;;;;;5.30;3.70;;;13.60;99.90;;;;;;5014188;28;20466;-48
2022/05/23 02:28:45;;;;;;;3.73;3.40;;;13.50;99.90;;;;;;5014559;28;20473;-41
2022/05/23 02:31:14;;;;;;;4.77;3.40;;;13.50;99.90;;;;;;5014991;28;20492;-40
2022/05/23 02:33:41;;;;;;;5.40;3.70;;;13.40;99.90;;;;;;5014509;28;20552;-45
2022/05/23 02:36:13;;;;;;;4.20;3.33;;;13.40;99.90;;;;;;5007375;28;20542;-49
2022/05/23 02:38:39;;;;;;;5.70;3.57;;;13.40;99.90;;;;;;5014085;28;20490;-44
2022/05/23 02:41:09;;;;;;;6.03;3.10;;;13.40;99.90;;;;;;5013648;28;20454;-50
2022/05/23 02:43:36;;;;;;;10.63;4.70;;;13.40;99.90;;;;;;5014043;28;20446;-46
2022/05/23 02:46:03;;;;;;;4.20;3.80;;;13.30;99.90;;;;;;5014152;28;20453;-49
2022/05/23 02:48:30;;;;;;;4.40;3.17;;;13.30;99.90;;;;;;5014025;28;20453;-44
2022/05/23 02:50:56;;;;;;;4.33;3.50;;;13.30;99.90;;;;;;5013717;28;20453;-51
2022/05/23 02:53:24;;;;;;;7.07;4.40;;;13.30;99.90;;;;;;5014279;28;20473;-52
2022/05/23 02:55:51;;;;;;;6.70;4.53;;;13.30;99.90;;;;;;5013828;28;20422;-39
2022/05/23 02:58:18;;;;;;;6.07;4.43;;;13.30;99.90;;;;;;5013763;28;20445;-43
2022/05/23 03:00:47;;;;;;;4.57;3.47;;;13.30;99.90;;;;;;5013481;28;20454;-44
2022/05/23 03:03:16;;;;;;;5.90;3.93;;;13.30;99.90;;;;;;5014603;28;20475;-44
2022/05/23 03:05:47;;;;;;;6.13;4.17;;;13.20;99.90;;;;;;5014384;28;20449;-47
2022/05/23 03:08:16;;;;;;;8.13;4.00;;;13.20;99.90;;;;;;5013973;28;20438;-48
2022/05/23 03:10:45;;;;;;;4.47;4.03;;;13.20;99.90;;;;;;5014235;28;20470;-43
2022/05/23 03:13:12;;;;;;;8.30;3.97;;;13.20;99.90;;;;;;5013544;28;20446;-46
2022/05/23 03:15:39;;;;;;;5.70;4.17;;;13.20;99.90;;;;;;5014151;28;20454;-44
2022/05/23 03:18:10;;;;;;;5.10;3.93;;;13.20;99.90;;;;;;5013826;28;20870;-50
2022/05/23 03:20:36;;;;;;;6.87;4.30;;;13.30;99.90;;;;;;5013807;28;20489;-45
2022/05/23 03:28:35;;;;;;;6.43;4.10;;;13.30;99.90;;;;;;5017650;28;20441;-47
2022/05/23 03:31:03;;;;;;;5.90;4.43;;;13.30;99.90;;;;;;5017347;28;20470;-41
2022/05/23 03:33:34;;;;;;;6.20;4.37;;;13.30;99.90;;;;;;5016664;28;20544;-49
2022/05/23 03:36:00;;;;;;;5.20;3.63;;;13.20;99.90;;;;;;5017121;28;20440;-44
2022/05/23 03:38:33;;;;;;;6.17;4.33;;;13.20;99.90;;;;;;5016975;28;20429;-42
2022/05/23 03:41:07;;;;;;;8.77;4.47;;;13.20;99.90;;;;;;5017330;28;20441;-41
2022/05/23 03:43:34;;;;;;;7.27;4.83;;;13.20;99.90;;;;;;5017600;28;20421;-50
2022/05/23 03:46:05;;;;;;;5.40;4.07;;;13.20;99.90;;;;;;5009119;28;20454;-44
2022/05/23 03:48:32;;;;;;;6.70;4.63;;;13.20;99.90;;;;;;5016648;28;20430;-44
2022/05/23 03:51:02;;;;;;;5.90;4.20;;;13.20;99.90;;;;;;5016617;28;20458;-47
2022/05/23 03:53:30;;;;;;;8.73;4.90;;;13.20;99.90;;;;;;5016646;28;20426;-46
2022/05/23 03:55:57;;;;;;;13.10;5.60;;;13.20;99.90;;;;;;5016338;28;20526;-50
2022/05/23 03:58:28;;;;;;;5.00;3.97;;;13.20;99.90;;;;;;5016290;28;20496;-49
2022/05/23 04:01:05;;;;;;;9.70;5.80;;;13.20;99.90;;;;;;5016476;28;20446;-50
2022/05/23 04:03:32;;;;;;;6.57;4.27;;;13.20;99.90;;;;;;5017219;28;20474;-42
2022/05/23 04:06:02;;;;;;;8.20;4.93;;;13.30;99.90;;;;;;5016213;28;20451;-43
2022/05/23 04:08:34;;;;;;;7.80;5.00;;;13.30;99.90;;;;;;5016950;28;20442;-43
2022/05/23 04:11:03;;;;;;;6.37;5.07;;;13.30;99.90;;;;;;5016446;28;20496;-43
2022/05/23 04:13:36;;;;;;;5.53;4.80;;;13.40;99.90;;;;;;5014900;28;20453;-38
2022/05/23 04:16:04;;;;;;;10.20;4.70;;;13.40;99.90;;;;;;5023369;28;20476;-48
2022/05/23 04:18:32;;;;;;;7.27;4.80;;;13.40;99.90;;;;;;5011402;28;20438;-45
2022/05/23 04:21:02;;;;;;;7.40;4.80;;;13.40;99.90;;;;;;5016322;28;20469;-44
2022/05/23 04:23:33;;;;;;;6.40;4.37;;;13.50;99.90;;;;;;5023480;28;20991;-49
2022/05/23 04:26:04;;;;;;;6.83;5.10;;;13.50;99.90;;;;;;5025097;28;20419;-44
2022/05/23 04:28:32;;;;;;;9.50;6.07;;;13.60;99.90;;;;;;5019960;28;20584;-46
2022/05/23 04:31:02;;;;;;;6.07;5.47;;;13.60;99.90;;;;;;5024401;28;20485;-51
2022/05/23 04:36:15;;;;;;;7.90;5.47;;;13.70;99.90;;;;;;5027699;28;20441;-45
2022/05/23 04:38:42;;;;;;;6.47;5.20;;;13.80;99.90;;;;;;5027546;28;20441;-48
2022/05/23 04:41:09;;;;;;;8.90;4.33;;;13.80;99.90;;;;;;5024483;28;20453;-51
2022/05/23 04:43:38;;;;;;;6.83;5.10;;;13.90;99.90;;;;;;5016399;28;20442;-49
2022/05/23 04:46:05;;;;;;;6.27;4.77;;;13.90;99.90;;;;;;5015892;28;20474;-52
2022/05/23 04:51:18;;;;;;;6.03;5.23;;;14.10;99.90;;;;;;5035658;28;20433;-43
2022/05/23 04:53:44;;;;;;;10.40;5.00;;;14.10;99.90;;;;;;5035375;28;20980;-45
2022/05/23 04:56:11;;;;;;;8.33;4.63;;;14.20;99.90;;;;;;5035700;28;20564;-35
2022/05/23 04:58:39;;;;;;;5.00;4.47;;;14.20;99.90;;;;;;5034794;28;20465;-43
2022/05/23 05:01:05;;;;;;;6.90;5.20;;;14.30;99.90;;;;;;5034186;28;20448;-43
2022/05/23 05:03:32;;;;;;;6.80;4.77;;;14.40;99.90;;;;;;5035374;28;20441;-42
2022/05/23 05:05:59;;;;;;;7.23;4.17;;;14.50;99.90;;;;;;5036146;28;20472;-42
2022/05/23 05:08:26;;;;;;;10.40;5.67;;;14.60;99.90;;;;;;5035396;28;20441;-46
2022/05/23 05:10:53;;;;;;;8.30;5.10;;;14.70;99.90;;;;;;5035303;28;20465;-52
2022/05/23 05:13:20;;;;;;;8.50;5.17;;;14.80;99.90;;;;;;5033985;28;20473;-43
2022/05/23 05:15:48;;;;;;;5.80;5.17;;;14.90;99.90;;;;;;5035046;28;20544;-48
2022/05/23 05:18:15;;;;;;;5.53;3.80;;;15.00;99.90;;;;;;5034911;28;20464;-53
2022/05/23 05:20:42;;;;;;;5.50;5.00;;;15.00;99.90;;;;;;5034628;28;20449;-45
2022/05/23 05:23:08;;;;;;;7.67;4.77;;;15.10;99.90;;;;;;5034646;28;20468;-46
2022/05/23 05:25:35;;;;;;;6.33;5.13;;;15.10;99.90;;;;;;5034417;28;20472;-47
2022/05/23 05:28:02;;;;;;;10.40;5.37;;;15.20;99.90;;;;;;5034434;28;20445;-47
2022/05/23 05:30:28;;;;;;;10.70;4.00;;;15.20;99.90;;;;;;5035598;28;20468;-40
2022/05/23 05:33:03;;;;;;;7.47;4.27;;;15.30;99.90;;;;;;5035277;28;20429;-42
2022/05/23 05:35:33;;;;;;;6.33;4.60;;;15.30;99.90;;;;;;5035033;28;20463;-46
2022/05/23 05:38:04;;;;;;;7.10;4.20;;;15.40;99.90;;;;;;5034849;28;20437;-50
2022/05/23 05:40:33;;;;;;;4.63;3.50;;;15.50;99.90;;;;;;5034492;28;20531;-48
2022/05/23 05:43:07;;;;;;;5.27;4.43;;;15.50;99.90;;;;;;5034798;28;20437;-41
2022/05/23 05:45:42;;;;;;;4.50;3.90;;;15.60;99.90;;;;;;5034583;28;20523;-44
2022/05/23 05:48:12;;;;;;;5.23;3.93;;;15.60;99.90;;;;;;5024707;28;20425;-50
2022/05/23 05:50:42;;;;;;;4.43;3.63;;;15.70;99.90;;;;;;5009487;28;20556;-51
2022/05/23 05:53:12;;;;;;;11.00;4.50;;;15.80;99.90;;;;;;5012028;28;20446;-38
2022/05/23 05:55:41;;;;;;;4.00;3.60;;;15.90;99.90;;;;;;5022086;28;20477;-40
2022/05/23 05:58:09;;;;;;;4.50;3.53;;;15.90;99.90;;;;;;5025980;28;20469;-48
2022/05/23 06:00:35;;;;;;;9.23;3.67;;;16.00;99.90;;;;;;5010854;28;20795;-50
2022/05/23 06:03:02;;;;;;;7.83;3.40;;;16.10;99.90;;;;;;5015048;28;20434;-43
2022/05/23 06:11:23;;;;;;;5.67;3.53;;;16.10;99.90;;;;;;5018580;28;20451;-48
2022/05/23 06:13:46;;;;;;;5.13;2.87;;;16.30;99.90;;;;;;5015214;28;20402;-50
2022/05/23 06:16:13;;;;;;;3.33;3.03;;;16.40;99.90;;;;;;5015479;28;20497;-50
2022/05/23 06:18:40;;;;;;;7.23;3.20;;;16.40;99.90;;;;;;5014207;28;20454;-42
2022/05/23 06:21:09;;;;;;;3.53;3.10;;;16.50;99.90;;;;;;5014794;28;20450;-59
2022/05/23 06:23:36;;;;;;;7.30;3.17;;;16.60;99.90;;;;;;5015477;28;20474;-43
2022/05/23 06:26:03;;;;;;;5.20;3.37;;;16.70;99.90;;;;;;5015381;28;20465;-54
2022/05/23 06:28:30;;;;;;;7.50;3.30;;;16.80;99.90;;;;;;5015167;28;20477;-39
2022/05/23 06:30:59;;;;;;;5.43;3.07;;;16.90;99.90;;;;;;5015345;28;20454;-47
2022/05/23 06:33:26;;;;;;;4.20;3.00;;;17.00;99.90;;;;;;5015420;28;20446;-42
2022/05/23 06:35:53;;;;;;;3.83;2.93;;;17.10;99.90;;;;;;5016033;28;20470;-36
2022/05/23 06:38:21;;;;;;;3.73;2.60;;;17.10;99.90;;;;;;5015707;28;20522;-38
2022/05/23 06:40:50;;;;;;;6.07;3.50;;;17.20;99.90;;;;;;5015457;28;20434;-49
2022/05/23 06:43:17;;;;;;;3.80;2.57;;;17.40;99.90;;;;;;5014805;28;20461;-48
2022/05/23 06:45:45;;;;;;;7.00;4.17;;;17.50;99.90;;;;;;5015217;28;20462;-43
2022/05/23 06:48:12;;;;;;;5.47;3.70;;;17.50;99.90;;;;;;5014888;28;20537;-41
2022/05/23 06:50:39;;;;;;;6.20;4.03;;;17.60;99.90;;;;;;5006176;28;20470;-50
2022/05/23 06:53:05;;;;;;;4.50;3.50;;;17.70;99.90;;;;;;5015429;28;20435;-40
2022/05/23 06:55:33;;;;;;;6.63;3.73;;;17.80;99.90;;;;;;5015504;28;20477;-50
2022/05/23 06:58:03;;;;;;;5.60;3.20;;;18.00;99.90;;;;;;5018676;28;20430;-43
2022/05/23 07:00:29;;;;;;;3.50;2.80;;;18.10;99.90;;;;;;5018825;28;20465;-45
2022/05/23 07:02:58;;;;;;;4.00;3.10;;;18.30;99.90;;;;;;5019197;28;20489;-49
2022/05/23 07:13:39;;;;;;;3.63;1.93;;;19.10;99.90;;;;;;5017236;28;20469;-46
2022/05/23 07:16:06;;;;;;;2.50;1.93;;;19.80;99.90;;;;;;5010640;28;20481;-45
2022/05/23 07:18:34;;;;;;;4.60;2.37;;;20.80;99.90;;;;;;5008835;28;20851;-50
2022/05/23 07:21:03;;;;;;;2.20;2.00;;;21.70;99.90;;;;;;5016707;28;20489;-51
2022/05/23 07:23:30;;;;;;;3.93;2.47;;;22.70;99.70;;;;;;5018521;28;20458;-38
2022/05/23 07:25:58;;;;;;;4.47;2.83;;;23.50;97.20;;;;;;5009886;28;20501;-37
2022/05/23 07:28:25;;;;;;;4.00;2.30;;;24.40;94.70;;;;;;5018826;28;20457;-38
2022/05/23 07:30:52;;;;;;;3.90;2.47;;;25.50;91.00;;;;;;5018668;28;20450;-51
2022/05/23 07:33:18;;;;;;;2.53;2.27;;;26.60;82.10;;;;;;5019451;28;20484;-43
2022/05/23 07:35:45;;;;;;;3.97;3.47;;;27.70;74.20;;;;;;5009521;28;20516;-41
2022/05/23 07:38:12;;;;;;;4.13;2.93;;;28.50;69.40;;;;;;5018882;28;20450;-36
2022/05/23 07:40:39;;;;;;;2.63;2.43;;;29.10;63.60;;;;;;5018929;28;20458;-38
2022/05/23 07:43:07;;;;;;;3.03;2.67;;;29.50;60.10;;;;;;5018958;28;20465;-46
2022/05/23 07:45:33;;;;;;;2.93;2.03;;;30.10;57.60;;;;;;5018779;28;20454;-42
2022/05/23 07:48:03;;;;;;;4.63;3.43;;;30.80;55.70;;;;;;5008091;28;20434;-39
2022/05/23 07:50:29;;;;;;;5.40;3.10;;;31.10;53.90;;;;;;5018886;28;20450;-40
2022/05/23 08:01:12;;;;;;;2.80;2.30;;;30.30;50.80;;;;;;5018624;28;20480;-49
2022/05/23 08:03:40;;;;;;;3.30;2.20;;;30.30;50.60;;;;;;5018939;28;20454;-45
2022/05/23 08:06:06;;;;;;;2.30;2.10;;;30.30;50.60;;;;;;5018481;28;20456;-40
2022/05/23 08:08:33;;;;;;;2.80;1.93;;;30.50;49.90;;;;;;5017653;28;20464;-46
2022/05/23 08:11:00;;;;;;;2.23;2.03;;;30.70;48.90;;;;;;5018533;28;20446;-38
2022/05/23 08:13:29;;;;;;;2.80;2.07;;;30.90;49.00;;;;;;5016707;28;20444;-55
2022/05/23 08:15:55;;;;;;;6.50;2.57;;;31.10;48.50;;;;;;5002532;28;20482;-49
2022/05/23 08:18:22;;;;;;;3.73;2.10;;;31.60;47.70;;;;;;5012907;28;20466;-45
2022/05/23 08:20:49;;;;;;;2.37;1.87;;;31.80;46.20;;;;;;5016876;28;20496;-53
2022/05/23 08:23:16;;;;;;;3.30;2.20;;;31.60;46.00;;;;;;5016704;28;20460;-45
2022/05/23 08:25:42;;;;;;;2.77;1.90;;;31.80;46.50;;;;;;5016393;28;20497;-48
2022/05/23 08:28:09;;;;;;;1.70;1.60;;;31.80;45.70;;;;;;5016115;28;20513;-48
2022/05/23 08:30:37;;;;;;;5.17;2.10;;;31.80;45.50;;;;;;5017247;28;20445;-44
2022/05/23 08:33:04;;;;;;;2.60;1.67;;;32.10;45.50;;;;;;5016592;28;20441;-50
2022/05/23 08:35:31;;;;;;;3.10;1.60;;;32.00;44.20;;;;;;5002144;28;20584;-47
2022/05/23 08:37:58;;;;;;;3.83;2.50;;;32.00;44.10;;;;;;5015465;28;20466;-47
2022/05/23 08:40:36;;;;;;;4.43;2.10;;;31.90;43.90;;;;;;5016505;28;20442;-51
2022/05/23 08:43:07;;;;;;;3.33;2.53;;;31.90;43.80;;;;;;5015214;28;20496;-46
2022/05/23 08:45:40;;;;;;;3.03;2.13;;;32.00;43.90;;;;;;5012190;28;20529;-51
2022/05/23 08:48:14;;;;;;;3.03;2.23;;;32.10;43.40;;;;;;5012245;28;20474;-41
2022/05/23 08:50:59;;;;;;;2.50;2.30;;;32.30;43.90;;;;;;5015073;28;20434;-43
2022/05/23 08:53:31;;;;;;;2.70;2.20;;;32.20;42.90;;;;;;5016409;28;20469;-51
2022/05/23 08:56:03;;;;;;;3.67;2.43;;;32.10;42.20;;;;;;5015520;28;20454;-49
2022/05/23 08:58:35;;;;;;;3.30;2.23;;;32.00;43.00;;;;;;5011678;28;20426;-44
2022/05/23 09:01:10;;;;;;;3.40;2.80;;;31.80;42.40;;;;;;5013959;28;20540;-45
2022/05/23 09:03:44;;;;;;;4.50;2.37;;;31.50;42.40;;;;;;5015331;28;20450;-47
2022/05/23 09:06:29;;;;;;;2.90;2.37;;;31.30;42.10;;;;;;5013875;28;20426;-50
2022/05/23 09:09:07;;;;;;;5.37;2.37;;;30.80;43.10;;;;;;5011659;28;20442;-44
2022/05/23 09:11:35;;;;;;;3.93;2.20;;;30.40;43.40;;;;;;5015571;28;20502;-44
2022/05/23 09:14:06;;;;;;;4.50;1.93;;;30.30;44.50;;;;;;5015011;28;20457;-49
2022/05/23 09:16:40;;;;;;;2.27;2.07;;;30.30;44.00;;;;;;5014624;28;20490;-42
2022/05/23 09:19:15;;;;;;;2.10;1.90;;;30.40;43.90;;;;;;5013266;28;20446;-51
2022/05/23 09:24:35;;;;;;;2.33;2.03;;;29.90;44.30;;;;;;5012988;28;20750;-53
2022/05/23 09:27:09;;;;;;;1.80;1.60;;;29.70;44.30;;;;;;5012920;28;20529;-52
2022/05/23 09:29:37;;;;;;;2.77;1.60;;;29.60;44.40;;;;;;5014943;28;20438;-50
2022/05/23 09:32:09;;;;;;;2.97;1.70;;;29.60;43.90;;;;;;5014716;28;20450;-47
2022/05/23 09:34:44;;;;;;;3.97;2.30;;;29.40;43.90;;;;;;5012354;28;20431;-50
2022/05/23 09:37:19;;;;;;;1.77;1.60;;;29.50;44.00;;;;;;5005252;28;20518;-50
2022/05/23 09:39:53;;;;;;;4.57;2.73;;;29.40;44.20;;;;;;5013865;28;20449;-45
2022/05/23 09:48:10;;;;;;;2.63;1.90;;;29.50;44.90;;;;;;5014611;28;20441;-48
2022/05/23 09:50:40;;;;;;;3.30;1.90;;;29.40;45.60;;;;;;5013103;28;20517;-48
2022/05/23 09:53:24;;;;;;;2.60;1.80;;;29.30;44.70;;;;;;5015531;28;20457;-44
2022/05/23 09:55:51;;;;;;;3.47;2.63;;;29.30;44.20;;;;;;5012971;28;20461;-46
2022/05/23 09:58:25;;;;;;;3.00;1.90;;;29.20;44.50;;;;;;5015189;28;20462;-52
2022/05/23 10:01:04;;;;;;;1.73;1.63;;;29.20;44.50;;;;;;5013394;28;20442;-43
2022/05/23 10:03:33;;;;;;;2.00;1.80;;;28.90;44.60;;;;;;5014275;28;20613;-49
2022/05/23 10:06:10;;;;;;;3.07;2.47;;;28.40;45.50;;;;;;5013858;28;20446;-41
2022/05/23 10:08:39;;;;;;;3.40;2.90;;;28.20;45.70;;;;;;5013355;28;20445;-44
2022/05/23 10:11:08;;;;;;;9.40;2.80;;;28.10;46.60;;;;;;5013015;28;20462;-45
2022/05/23 10:13:37;;;;;;;3.80;2.33;;;27.90;46.10;;;;;;5004857;28;20426;-52
2022/05/23 10:16:14;;;;;;;4.40;2.07;;;27.60;46.50;;;;;;5005913;28;20501;-50
2022/05/23 10:18:51;;;;;;;5.97;2.53;;;27.30;46.70;;;;;;5012464;28;20442;-49
2022/05/23 10:21:26;;;;;;;3.13;2.10;;;27.20;47.10;;;;;;5013464;28;20445;-40
2022/05/23 10:24:07;;;;;;;3.20;2.07;;;27.00;48.00;;;;;;5015057;28;20446;-44
2022/05/23 10:26:40;;;;;;;3.63;1.87;;;26.60;47.20;;;;;;5014686;28;20469;-45
2022/05/23 10:29:13;;;;;;;2.53;2.10;;;26.30;48.20;;;;;;5004150;28;20499;-47
2022/05/23 10:31:47;;;;;;;2.77;2.30;;;25.90;48.60;;;;;;5014671;28;20451;-42
2022/05/23 10:34:27;;;;;;;2.47;2.27;;;25.40;49.20;;;;;;5013747;28;20483;-50
2022/05/23 10:36:57;;;;;;;6.60;2.63;;;25.40;50.00;;;;;;5013521;28;20470;-47
2022/05/23 10:42:20;;;;;;;2.90;2.40;;;25.40;50.50;;;;;;5015413;28;20413;-45
2022/05/23 10:45:01;;;;;;;5.20;3.23;;;25.70;52.00;;;;;;5015552;28;20480;-44
2022/05/23 10:47:38;;;;;;;3.83;1.70;;;25.80;50.30;;;;;;5014355;28;20473;-46
2022/05/23 10:50:18;;;;;;;3.40;2.10;;;25.90;50.40;;;;;;5014762;28;20426;-36
2022/05/23 10:52:54;;;;;;;5.07;2.27;;;26.10;50.00;;;;;;5015400;28;20453;-44
2022/05/23 10:55:30;;;;;;;5.70;1.53;;;26.10;50.10;;;;;;5015477;28;20485;-44
2022/05/23 10:58:06;;;;;;;7.07;2.70;;;26.00;49.60;;;;;;5009257;28;20438;-51
2022/05/23 11:00:39;;;;;;;3.07;1.93;;;25.90;49.70;;;;;;5010736;28;20464;-38
2022/05/23 11:03:12;;;;;;;2.40;2.00;;;25.90;49.80;;;;;;5014062;28;20470;-41
2022/05/23 11:05:47;;;;;;;2.60;2.03;;;25.80;49.80;;;;;;5015385;28;20426;-44
2022/05/23 11:08:28;;;;;;;2.70;1.90;;;25.50;50.10;;;;;;5014247;28;20500;-42
2022/05/23 11:11:02;;;;;;;2.13;1.90;;;25.40;50.40;;;;;;5014238;28;20434;-43
2022/05/23 11:13:42;;;;;;;2.43;1.70;;;25.40;50.30;;;;;;5004519;28;20477;-48
2022/05/23 11:16:18;;;;;;;2.00;1.80;;;25.30;50.30;;;;;;5014059;28;20469;-47
2022/05/23 11:19:03;;;;;;;3.20;2.70;;;25.20;50.80;;;;;;5015557;28;20498;-41
2022/05/23 11:21:37;;;;;;;2.20;2.00;;;25.30;51.00;;;;;;5014501;28;20477;-46
2022/05/23 11:24:08;;;;;;;3.03;2.73;;;25.30;50.50;;;;;;5014082;28;20458;-50
2022/05/23 11:26:40;;;;;;;3.37;2.13;;;25.20;51.50;;;;;;5013958;28;20434;-51
2022/05/23 11:34:47;;;;;;;3.27;1.80;;;25.10;51.10;;;;;;5013780;28;20405;-47
2022/05/23 11:40:06;;;;;;;7.63;2.10;;;24.80;51.40;;;;;;5012504;28;20430;-48
2022/05/23 11:42:41;;;;;;;2.67;2.00;;;24.70;51.80;;;;;;5003206;28;20441;-48
2022/05/23 11:48:30;;;;;;;2.70;2.00;;;24.50;52.30;;;;;;5019307;28;20425;-48
2022/05/23 11:51:09;;;;;;;2.30;2.10;;;24.70;52.50;;;;;;5011753;28;20418;-45
2022/05/23 11:53:40;;;;;;;2.90;1.50;;;24.70;52.60;;;;;;5014657;28;20430;-50
2022/05/23 11:56:09;;;;;;;1.77;1.67;;;24.80;52.10;;;;;;5018131;28;21176;-50
2022/05/23 11:58:47;;;;;;;2.20;1.90;;;25.00;52.20;;;;;;5018896;28;20481;-38
2022/05/23 12:01:25;;;;;;;3.77;2.80;;;25.10;51.90;;;;;;5016445;28;20485;-51
2022/05/23 12:04:19;;;;;;;6.07;4.00;;;25.30;52.20;;;;;;5018132;28;20469;-44
2022/05/23 12:06:46;;;;;;;3.53;2.40;;;25.30;53.50;;;;;;5004346;28;20449;-53
2022/05/23 12:09:36;;;;;;;3.63;2.30;;;25.30;52.20;;;;;;5018081;28;20488;-45
2022/05/23 12:12:48;;;;;;;1.90;1.70;;;25.20;52.00;;;;;;5018080;28;20513;-45
2022/05/23 12:15:50;;;;;;;2.90;2.13;;;25.10;52.20;;;;;;5018045;28;20456;-46
2022/05/23 12:18:33;;;;;;;2.40;2.10;;;25.10;51.80;;;;;;5017756;28;20453;-52
2022/05/23 12:21:02;;;;;;;4.03;2.43;;;25.10;52.30;;;;;;5017938;28;20473;-43
2022/05/23 12:23:35;;;;;;;3.30;2.00;;;25.00;52.10;;;;;;5007363;28;20453;-39
2022/05/23 12:26:20;;;;;;;3.50;1.80;;;25.10;52.30;;;;;;5010173;28;20516;-45
2022/05/23 12:28:49;;;;;;;2.77;1.60;;;25.20;52.30;;;;;;5015931;28;20431;-37
2022/05/23 12:31:17;;;;;;;3.37;2.73;;;25.40;52.00;;;;;;5016301;28;20492;-48
2022/05/23 12:33:51;;;;;;;4.57;2.17;;;25.50;50.90;;;;;;5015382;28;20446;-47
2022/05/23 12:36:22;;;;;;;4.07;2.93;;;25.50;50.90;;;;;;5016845;28;20565;-43
2022/05/23 12:39:02;;;;;;;2.57;2.10;;;25.40;50.90;;;;;;5015744;28;20451;-41
2022/05/23 12:41:55;;;;;;;2.50;1.80;;;25.30;50.90;;;;;;5017878;28;20469;-43
2022/05/23 12:45:08;;;;;;;2.03;1.83;;;25.20;50.70;;;;;;5015617;28;20439;-49
2022/05/23 12:48:06;;;;;;;2.00;1.50;;;25.10;50.80;;;;;;5016927;28;20509;-43
2022/05/23 12:50:45;;;;;;;1.70;1.60;;;25.10;51.00;;;;;;5016608;28;20481;-43
2022/05/23 12:53:35;;;;;;;2.33;2.10;;;25.10;51.40;;;;;;5017998;28;20465;-39
2022/05/23 12:56:17;;;;;;;2.77;2.00;;;25.00;51.90;;;;;;5016583;28;20426;-50
2022/05/23 12:59:11;;;;;;;3.30;2.07;;;25.00;52.10;;;;;;5008808;28;20504;-41
2022/05/23 13:01:43;;;;;;;1.97;1.80;;;25.00;51.90;;;;;;5016174;28;20453;-43
2022/05/23 13:04:19;;;;;;;4.00;2.47;;;25.00;51.70;;;;;;5017624;28;20505;-43
2022/05/23 13:06:54;;;;;;;2.60;2.10;;;25.10;51.50;;;;;;5014993;28;20426;-46
2022/05/23 13:09:31;;;;;;;7.83;2.50;;;25.00;51.50;;;;;;5016390;28;20438;-44
2022/05/23 13:12:05;;;;;;;2.23;2.03;;;25.10;52.40;;;;;;5017048;28;20444;-39
2022/05/23 13:14:54;;;;;;;5.73;2.73;;;25.10;51.30;;;;;;5017345;28;20427;-39
2022/05/23 13:17:32;;;;;;;6.30;3.07;;;25.10;51.80;;;;;;5016491;28;20458;-39
2022/05/23 13:22:43;;;;;;;3.47;2.10;;;25.20;52.00;;;;;;5016736;28;20425;-46
2022/05/23 13:25:11;;;;;;;2.30;2.10;;;25.40;51.50;;;;;;5016704;28;20473;-38
2022/05/23 13:27:45;;;;;;;2.73;2.00;;;25.30;51.30;;;;;;5005533;28;20494;-46
2022/05/23 13:30:27;;;;;;;2.90;2.17;;;25.40;51.60;;;;;;5016056;28;20426;-42
2022/05/23 13:33:08;;;;;;;4.10;2.47;;;25.40;51.60;;;;;;5002226;28;20544;-45
2022/05/23 13:35:36;;;;;;;3.10;2.30;;;25.30;51.50;;;;;;5006943;28;20426;-46
2022/05/23 13:38:17;;;;;;;2.53;2.13;;;25.20;51.80;;;;;;5015525;28;20498;-47
2022/05/23 13:40:46;;;;;;;5.37;2.13;;;25.00;51.80;;;;;;5012397;28;20469;-46
2022/05/23 13:43:15;;;;;;;2.20;2.00;;;24.80;52.80;;;;;;5014540;28;20485;-44
2022/05/23 13:45:45;;;;;;;3.20;2.20;;;24.60;52.40;;;;;;5015599;28;20462;-44
2022/05/23 13:48:20;;;;;;;3.30;2.63;;;24.70;52.60;;;;;;5013810;28;20426;-41
2022/05/23 13:50:52;;;;;;;3.13;2.20;;;24.60;53.20;;;;;;5016291;28;20465;-43
2022/05/23 13:53:24;;;;;;;3.20;2.80;;;24.50;53.30;;;;;;5016042;28;20447;-43
2022/05/23 13:55:51;;;;;;;3.63;2.73;;;24.60;53.40;;;;;;5015753;28;20485;-48
2022/05/23 13:58:20;;;;;;;7.87;4.80;;;24.80;53.30;;;;;;5017031;28;20478;-51
2022/05/23 14:00:55;;;;;;;4.30;3.57;;;25.00;53.30;;;;;;5015874;28;20465;-44
2022/05/23 14:03:29;;;;;;;5.27;3.60;;;25.10;53.10;;;;;;5010594;28;21129;-48
2022/05/23 14:05:57;;;;;;;2.60;2.00;;;25.20;52.50;;;;;;5005567;28;20446;-44
2022/05/23 14:08:33;;;;;;;3.20;2.30;;;25.10;52.80;;;;;;5014288;28;20438;-47
2022/05/23 14:11:03;;;;;;;3.53;2.60;;;25.00;53.00;;;;;;5016222;28;20465;-47
2022/05/23 14:13:35;;;;;;;2.33;1.83;;;24.80;53.00;;;;;;5015273;28;20429;-39